Terminal Aerodrome Forecast
Issued by NWS Portland, OR

Home | Current Version | Previous Version | Text Only | Print | Product List | Glossary On
Versions: 1 2 3 4 5 6 7 8 9 10 11 12 13 14 15 16 17 18 19 20 21 22 23 24 25 26 27 28 29 30 31 32 33 34 35 36 37 38 39 40 41 42 43 44 45 46 47 48 49 50
000
FTUS46 KPQR 012338
TAFHIO
TAF
KHIO 012338Z 0200/0224 VRB03KT P6SM BKN045
     FM020200 35004KT P6SM FEW045
     FM020900 00000KT 2SM BR BKN002
     FM021100 00000KT 1/2SM FG OVC002
     FM021700 00000KT 3SM BR OVC003
     FM021900 VRB02KT P6SM FEW005=

USA.gov is the U.S. government's official web portal to all federal, state and local government web resources and services.